createdAt,value
2023-03-30T00:02:35.464Z,3.1
2023-03-30T00:14:35.313Z,3.1
2023-03-30T00:26:35.312Z,2.3
2023-03-30T00:38:35.369Z,2.3
2023-03-30T00:50:35.329Z,2.3
2023-03-30T01:02:35.373Z,3.6
2023-03-30T01:14:35.314Z,3.6
2023-03-30T01:26:35.326Z,2.9
2023-03-30T01:38:35.319Z,2.9
2023-03-30T01:50:35.329Z,2.9
2023-03-30T02:02:35.400Z,2.2
2023-03-30T02:14:35.359Z,2.2
2023-03-30T02:26:35.414Z,3.2
2023-03-30T02:38:35.418Z,3.2
2023-03-30T02:50:35.340Z,3.2
2023-03-30T03:02:35.459Z,2.2
2023-03-30T03:14:35.328Z,2.2
2023-03-30T03:26:35.433Z,2.5
2023-03-30T03:38:35.415Z,2.5
2023-03-30T03:50:35.419Z,2.5
2023-03-30T04:02:35.551Z,1.7
2023-03-30T04:14:35.426Z,1.7
2023-03-30T04:26:35.366Z,1.6
2023-03-30T04:38:35.319Z,1.6
2023-03-30T04:50:35.586Z,1.6
2023-03-30T05:02:35.504Z,1.3
2023-03-30T05:14:35.373Z,1.3
2023-03-30T05:26:35.424Z,1.6
2023-03-30T05:38:35.426Z,1.6
2023-03-30T05:50:35.426Z,1.6
2023-03-30T06:02:35.537Z,2.0
2023-03-30T06:14:35.310Z,2.0
2023-03-30T06:26:35.313Z,5.7
2023-03-30T06:38:35.317Z,5.7
2023-03-30T06:50:35.329Z,5.7
2023-03-30T07:02:35.326Z,2.8
2023-03-30T07:14:35.391Z,2.8
2023-03-30T07:26:35.326Z,3.2
2023-03-30T07:38:35.397Z,3.2
2023-03-30T07:50:35.390Z,3.2
2023-03-30T08:02:35.448Z,3.0
2023-03-30T08:14:35.320Z,3.0
2023-03-30T08:26:36.602Z,3.2
2023-03-30T08:38:35.428Z,3.2
2023-03-30T08:50:35.416Z,3.2
2023-03-30T09:02:37.934Z,2.5
2023-03-30T09:14:35.429Z,2.5
2023-03-30T09:26:35.328Z,1.8
2023-03-30T09:38:35.305Z,1.8
2023-03-30T09:50:35.381Z,1.8
2023-03-30T10:02:35.521Z,2.9
2023-03-30T10:14:35.434Z,2.9
2023-03-30T10:26:35.313Z,1.5
2023-03-30T10:38:35.315Z,1.5
2023-03-30T10:50:35.329Z,1.5
2023-03-30T11:02:35.366Z,1.5
2023-03-30T11:14:35.426Z,1.5
2023-03-30T11:26:35.339Z,1.3
2023-03-30T11:38:35.408Z,1.3
2023-03-30T11:50:36.227Z,1.3
2023-03-30T12:02:35.523Z,1.2
2023-03-30T12:14:35.390Z,1.2
2023-03-30T12:26:35.319Z,1.0
2023-03-30T12:38:35.448Z,1.0
2023-03-30T12:50:35.415Z,1.0
2023-03-30T13:02:35.465Z,0.6
2023-03-30T13:14:35.396Z,0.6
2023-03-30T13:26:35.692Z,1.0
2023-03-30T13:38:35.413Z,1.0
2023-03-30T13:50:35.443Z,1.0
2023-03-30T14:02:37.814Z,0.8
2023-03-30T14:14:35.423Z,0.8
2023-03-30T14:26:35.304Z,0.6
2023-03-30T14:38:35.391Z,0.6
2023-03-30T14:50:35.416Z,0.6
2023-03-30T15:02:35.480Z,0.6
2023-03-30T15:14:35.339Z,0.6
2023-03-30T15:26:35.306Z,0.8
2023-03-30T15:38:35.415Z,0.8
2023-03-30T15:50:35.329Z,0.8
2023-03-30T16:02:35.398Z,0.7
2023-03-30T16:14:35.404Z,0.7
2023-03-30T16:26:35.340Z,0.6
2023-03-30T16:38:35.423Z,0.6
2023-03-30T16:50:35.326Z,0.6
2023-03-30T17:02:35.411Z,0.6
2023-03-30T17:14:35.329Z,0.6
2023-03-30T17:26:35.428Z,0.4
2023-03-30T17:38:35.374Z,0.4
2023-03-30T17:50:35.412Z,0.4
2023-03-30T18:02:35.468Z,0.9
2023-03-30T18:14:35.405Z,0.9
2023-03-30T18:26:35.350Z,0.8
2023-03-30T18:38:35.416Z,0.8
2023-03-30T18:50:35.314Z,0.8
2023-03-30T19:02:35.806Z,1.8
2023-03-30T19:14:35.342Z,1.8
2023-03-30T19:26:35.425Z,0.8
2023-03-30T19:38:35.426Z,0.8
2023-03-30T19:50:35.432Z,0.8
2023-03-30T20:02:35.462Z,1.2
2023-03-30T20:14:35.395Z,1.2
2023-03-30T20:26:35.332Z,0.9
2023-03-30T20:38:35.422Z,0.9
2023-03-30T20:50:35.405Z,0.9
2023-03-30T21:02:35.339Z,0.7
2023-03-30T21:14:35.430Z,0.7
2023-03-30T21:26:35.437Z,0.7
2023-03-30T21:38:35.368Z,0.7
2023-03-30T21:50:35.725Z,0.7
2023-03-30T22:02:35.548Z,0.7
2023-03-30T22:14:35.421Z,0.7
2023-03-30T22:26:35.365Z,0.8
2023-03-30T22:38:35.341Z,0.8
2023-03-30T22:50:35.430Z,0.8
2023-03-30T23:02:35.444Z,0.5
2023-03-30T23:14:35.411Z,0.5
2023-03-30T23:26:35.307Z,1.0
2023-03-30T23:38:35.433Z,1.0
2023-03-30T23:50:35.315Z,1.0
